Terminal Aerodrome Forecast
Issued by NWS Atlanta, GA

Home | Current Version | Previous Version | Text Only | Print | Product List | Glossary On
Versions: 1 2 3 4 5 6 7 8 9 10 11 12 13 14 15 16 17 18 19 20 21 22 23 24 25 26 27 28 29 30 31 32 33 34 35 36 37 38
447
FTUS42 KFFC 251938 AAA
TAFAHN
TAF AMD
KAHN 251938Z 2520/2618 31010KT P6SM SCT045
     FM252200 31010G16KT P6SM FEW045
     FM260000 00000KT P6SM SKC
     FM261200 00000KT P6SM FEW020
     FM261500 24003KT P6SM FEW030=

USA.gov is the U.S. government's official web portal to all federal, state and local government web resources and services.